createdAt,value
2022-10-01T00:02:17.307Z,83.72
2022-10-01T00:04:45.395Z,83.87
2022-10-01T00:07:15.426Z,84.15
2022-10-01T00:09:43.664Z,84.09
2022-10-01T00:12:15.873Z,84.10
2022-10-01T00:14:44.722Z,84.14
2022-10-01T00:17:13.109Z,84.95
2022-10-01T00:19:41.335Z,84.60
2022-10-01T00:22:09.741Z,84.47
2022-10-01T00:24:38.861Z,84.26
2022-10-01T00:27:07.344Z,84.07
2022-10-01T00:29:36.675Z,84.08
2022-10-01T00:32:05.158Z,83.90
2022-10-01T00:34:36.066Z,84.06
2022-10-01T00:37:05.059Z,83.73
2022-10-01T00:39:33.336Z,83.89
2022-10-01T00:42:01.514Z,83.72
2022-10-01T00:44:36.202Z,83.45
2022-10-01T00:47:33.391Z,83.46
2022-10-01T00:50:20.648Z,83.46
2022-10-01T00:52:54.361Z,83.37
2022-10-01T00:55:27.137Z,83.13
2022-10-01T00:57:55.794Z,83.20
2022-10-01T01:00:23.958Z,83.08
2022-10-01T01:02:53.156Z,83.17
2022-10-01T01:05:22.024Z,83.35
2022-10-01T01:07:52.851Z,83.39
2022-10-01T01:10:37.649Z,83.13
2022-10-01T01:13:16.698Z,83.18
2022-10-01T01:15:44.921Z,83.19
2022-10-01T01:18:30.740Z,83.36
2022-10-01T01:21:07.725Z,83.36
2022-10-01T01:23:51.323Z,83.32
2022-10-01T01:26:51.895Z,83.14
2022-10-01T01:29:29.079Z,83.45
2022-10-01T01:32:02.328Z,83.61
2022-10-01T01:34:33.634Z,83.55
2022-10-01T01:37:12.342Z,83.38
2022-10-01T01:39:47.840Z,83.36
2022-10-01T01:42:22.512Z,83.30
2022-10-01T01:44:54.579Z,83.28
2022-10-01T01:47:25.221Z,83.33
2022-10-01T01:49:53.442Z,83.16
2022-10-01T01:52:22.274Z,83.07
2022-10-01T01:54:51.882Z,82.98
2022-10-01T01:57:21.288Z,83.16
2022-10-01T01:59:50.074Z,83.55
2022-10-01T02:02:26.302Z,83.48
2022-10-01T02:05:02.207Z,83.81
2022-10-01T02:07:54.181Z,83.65
2022-10-01T02:10:25.383Z,83.72
2022-10-01T02:13:35.428Z,83.56
2022-10-01T02:16:25.903Z,83.35
2022-10-01T02:19:15.239Z,83.55
2022-10-01T02:21:54.736Z,83.54
2022-10-01T02:24:25.890Z,83.34
2022-10-01T02:26:56.979Z,83.65
2022-10-01T02:29:26.324Z,83.38
2022-10-01T02:31:56.650Z,83.27
2022-10-01T02:34:28.716Z,83.63
2022-10-01T02:37:01.190Z,83.72
2022-10-01T02:39:31.924Z,83.64
2022-10-01T02:42:02.866Z,83.99
2022-10-01T02:44:40.313Z,84.43
2022-10-01T02:47:24.046Z,84.14
2022-10-01T02:49:53.499Z,83.85
2022-10-01T02:53:11.269Z,83.71
2022-10-01T02:55:41.762Z,83.52
2022-10-01T02:58:10.039Z,83.40
2022-10-01T03:00:38.186Z,83.36
2022-10-01T03:03:06.577Z,83.48
2022-10-01T03:05:34.770Z,83.44
2022-10-01T03:08:03.178Z,83.36
2022-10-01T03:10:31.425Z,83.25
2022-10-01T03:13:01.763Z,83.52
2022-10-01T03:15:30.103Z,83.73
2022-10-01T03:17:58.482Z,84.12
2022-10-01T03:20:27.067Z,84.24
2022-10-01T03:22:55.449Z,84.14
2022-10-01T03:25:23.850Z,84.16
2022-10-01T03:27:52.788Z,84.06
2022-10-01T03:30:21.705Z,84.06
2022-10-01T03:32:50.006Z,84.00
2022-10-01T03:35:18.333Z,84.06
2022-10-01T03:37:47.873Z,84.23
2022-10-01T03:40:16.248Z,84.44
2022-10-01T03:42:44.527Z,84.52
2022-10-01T03:45:13.148Z,84.48
2022-10-01T03:47:41.486Z,84.37
2022-10-01T03:50:09.670Z,84.32
2022-10-01T03:52:37.897Z,84.21
2022-10-01T03:55:06.836Z,84.21
2022-10-01T03:57:35.003Z,84.26
2022-10-01T04:00:04.509Z,84.44
2022-10-01T04:02:40.134Z,84.46
2022-10-01T04:05:09.055Z,84.27
2022-10-01T04:07:37.332Z,84.27
2022-10-01T04:10:06.284Z,84.29
2022-10-01T04:12:34.905Z,84.34
2022-10-01T04:15:03.181Z,84.34
2022-10-01T04:17:32.281Z,84.47
2022-10-01T04:20:00.962Z,84.35
2022-10-01T04:22:29.324Z,84.34
2022-10-01T04:24:57.709Z,84.48
2022-10-01T04:27:26.423Z,84.60
2022-10-01T04:29:54.620Z,84.57
2022-10-01T04:32:22.937Z,84.60
2022-10-01T04:34:54.309Z,84.31
2022-10-01T04:37:23.153Z,84.49
2022-10-01T04:39:51.337Z,84.75
2022-10-01T04:42:20.160Z,84.92
2022-10-01T04:44:48.417Z,84.98
2022-10-01T04:47:16.692Z,84.87
2022-10-01T04:49:44.930Z,84.96
2022-10-01T04:52:13.141Z,84.99
2022-10-01T04:54:41.730Z,85.12
2022-10-01T04:57:10.003Z,85.26
2022-10-01T04:59:38.178Z,85.45
2022-10-01T05:02:06.481Z,85.60
2022-10-01T05:04:35.039Z,85.78
2022-10-01T05:07:03.238Z,85.78
2022-10-01T05:09:33.948Z,86.02
2022-10-01T05:12:02.529Z,86.17
2022-10-01T05:14:31.422Z,86.30
2022-10-01T05:16:59.751Z,86.58
2022-10-01T05:19:29.458Z,86.98
2022-10-01T05:21:57.686Z,86.90
2022-10-01T05:24:26.214Z,86.82
2022-10-01T05:26:54.446Z,86.69
2022-10-01T05:29:23.158Z,86.60
2022-10-01T05:31:51.911Z,86.91
2022-10-01T05:34:20.201Z,87.06
2022-10-01T05:36:48.475Z,87.15
2022-10-01T05:39:16.773Z,87.32
2022-10-01T05:41:45.180Z,87.10
2022-10-01T05:44:13.639Z,86.87
2022-10-01T05:46:43.754Z,86.74
2022-10-01T05:49:11.929Z,86.52
2022-10-01T05:51:40.189Z,86.31
2022-10-01T05:54:08.670Z,85.99
2022-10-01T05:56:37.160Z,85.25
2022-10-01T05:59:06.209Z,84.59
2022-10-01T06:01:35.126Z,84.00
2022-10-01T06:04:03.929Z,83.68
2022-10-01T06:06:32.349Z,81.70
2022-10-01T06:09:00.620Z,78.75
2022-10-01T06:11:29.264Z,76.09
2022-10-01T06:13:57.543Z,73.27
2022-10-01T06:16:25.982Z,66.48
2022-10-01T06:18:57.600Z,64.64
2022-10-01T06:21:27.621Z,60.48
2022-10-01T06:23:55.866Z,56.73
2022-10-01T06:26:24.601Z,52.53
2022-10-01T06:28:52.911Z,49.42
2022-10-01T06:31:21.598Z,45.02
2022-10-01T06:33:49.847Z,43.22
2022-10-01T06:36:18.323Z,41.19
2022-10-01T06:38:49.725Z,39.50
2022-10-01T06:41:18.710Z,37.59
2022-10-01T06:43:48.809Z,38.07
2022-10-01T06:46:17.076Z,37.40
2022-10-01T06:48:45.566Z,37.27
2022-10-01T06:51:13.637Z,36.46
2022-10-01T06:53:42.084Z,36.93
2022-10-01T06:56:10.311Z,36.56
2022-10-01T06:58:38.588Z,35.60
2022-10-01T07:01:06.766Z,34.97
2022-10-01T07:03:36.074Z,35.58
2022-10-01T07:06:05.604Z,35.55
2022-10-01T07:08:33.848Z,35.36
2022-10-01T07:11:02.917Z,35.48
2022-10-01T07:13:31.682Z,34.42
2022-10-01T07:15:59.713Z,34.61
2022-10-01T07:18:27.869Z,33.72
2022-10-01T07:20:59.273Z,34.13
2022-10-01T07:23:27.396Z,34.10
2022-10-01T07:25:55.697Z,34.45
2022-10-01T07:28:25.847Z,35.08
2022-10-01T07:30:58.167Z,35.02
2022-10-01T07:33:26.546Z,34.06
2022-10-01T07:35:55.193Z,32.61
2022-10-01T07:38:23.201Z,33.06
2022-10-01T07:40:59.076Z,33.46
2022-10-01T07:43:27.251Z,32.90
2022-10-01T07:45:58.368Z,32.08
2022-10-01T07:48:27.608Z,30.91
2022-10-01T07:50:57.856Z,29.99
2022-10-01T07:53:26.381Z,28.87
2022-10-01T07:55:54.568Z,27.33
2022-10-01T07:58:24.259Z,27.17
2022-10-01T08:00:58.236Z,26.18
2022-10-01T08:03:27.278Z,23.12
2022-10-01T08:05:55.761Z,22.18
2022-10-01T08:08:24.030Z,23.18
2022-10-01T08:10:52.322Z,21.56
2022-10-01T08:13:24.880Z,20.75
2022-10-01T08:15:55.905Z,24.04
2022-10-01T08:18:27.064Z,24.99
2022-10-01T08:20:55.441Z,26.15
2022-10-01T08:23:31.418Z,28.06
2022-10-01T08:26:07.640Z,28.40
2022-10-01T08:28:36.213Z,27.56
2022-10-01T08:31:10.121Z,26.18
2022-10-01T08:33:39.020Z,25.52
2022-10-01T08:36:08.568Z,22.36
2022-10-01T08:38:37.667Z,19.91
2022-10-01T08:41:26.572Z,17.59
2022-10-01T08:43:54.951Z,18.62
2022-10-01T08:46:27.939Z,18.19
2022-10-01T08:49:28.188Z,18.69
2022-10-01T08:52:06.441Z,19.97
2022-10-01T08:54:41.408Z,21.02
2022-10-01T08:57:19.723Z,22.15
2022-10-01T08:59:56.830Z,24.17
2022-10-01T09:02:26.397Z,25.26
2022-10-01T09:05:02.155Z,26.86
2022-10-01T09:07:48.565Z,27.99
2022-10-01T09:10:36.095Z,29.45
2022-10-01T09:13:34.902Z,30.85
2022-10-01T09:16:12.890Z,31.83
2022-10-01T09:18:50.960Z,33.33
2022-10-01T09:21:24.966Z,34.01
2022-10-01T09:24:22.267Z,34.27
2022-10-01T09:26:50.338Z,35.54
2022-10-01T09:29:27.553Z,35.75
2022-10-01T09:31:57.863Z,36.77
2022-10-01T09:34:38.413Z,37.61
2022-10-01T09:37:26.461Z,38.18
2022-10-01T09:40:12.863Z,38.97
2022-10-01T09:42:41.235Z,40.14
2022-10-01T09:45:15.213Z,40.04
2022-10-01T09:47:51.509Z,40.11
2022-10-01T09:50:28.489Z,40.53
2022-10-01T09:53:00.659Z,41.18
2022-10-01T09:55:54.451Z,41.99
2022-10-01T09:58:27.800Z,42.22
2022-10-01T10:00:57.210Z,42.50
2022-10-01T10:03:30.778Z,42.42
2022-10-01T10:06:00.419Z,43.00
2022-10-01T10:08:40.400Z,42.94
2022-10-01T10:11:20.664Z,43.63
2022-10-01T10:14:00.223Z,43.11
2022-10-01T10:16:38.053Z,44.40
2022-10-01T10:19:27.542Z,42.88
2022-10-01T10:21:59.730Z,40.90
2022-10-01T10:24:33.728Z,38.78
2022-10-01T10:27:04.869Z,37.63
2022-10-01T10:29:37.649Z,37.75
2022-10-01T10:32:28.250Z,36.87
2022-10-01T10:35:05.309Z,36.89
2022-10-01T10:37:37.980Z,36.98
2022-10-01T10:40:10.630Z,35.82
2022-10-01T10:42:39.021Z,34.73
2022-10-01T10:45:17.711Z,35.04
2022-10-01T10:47:49.166Z,34.89
2022-10-01T10:50:39.461Z,35.06
2022-10-01T10:53:22.774Z,34.68
2022-10-01T10:56:02.717Z,33.56
2022-10-01T10:58:39.904Z,33.37
2022-10-01T11:01:20.418Z,33.04
2022-10-01T11:03:53.464Z,33.25
2022-10-01T11:06:22.344Z,33.75
2022-10-01T11:09:00.627Z,33.36
2022-10-01T11:11:32.347Z,33.24
2022-10-01T11:14:08.015Z,33.07
2022-10-01T11:17:05.942Z,32.84
2022-10-01T11:19:43.222Z,33.15
2022-10-01T11:22:53.893Z,33.42
2022-10-01T11:25:48.279Z,33.51
2022-10-01T11:28:34.647Z,32.87
2022-10-01T11:31:29.663Z,33.20
2022-10-01T11:34:00.719Z,32.56
2022-10-01T11:36:36.270Z,32.17
2022-10-01T11:39:27.238Z,31.93
2022-10-01T11:42:19.586Z,31.40
2022-10-01T11:45:03.390Z,31.75
2022-10-01T11:47:42.050Z,32.23
2022-10-01T11:50:25.379Z,32.39
2022-10-01T11:53:33.487Z,31.20
2022-10-01T11:56:23.364Z,30.87
2022-10-01T11:59:05.882Z,31.80
2022-10-01T12:02:08.433Z,31.60
2022-10-01T12:04:48.222Z,31.88
2022-10-01T12:07:20.473Z,31.71
2022-10-01T12:10:07.599Z,31.52
2022-10-01T12:12:45.105Z,31.41
2022-10-01T12:15:44.923Z,30.94
2022-10-01T12:18:33.681Z,31.03
2022-10-01T12:21:07.749Z,30.99
2022-10-01T12:23:53.508Z,30.36
2022-10-01T12:26:44.670Z,29.25
2022-10-01T12:29:31.891Z,28.79
2022-10-01T12:32:22.088Z,28.44
2022-10-01T12:35:35.516Z,27.55
2022-10-01T12:38:19.920Z,26.98
2022-10-01T12:41:09.098Z,26.40
2022-10-01T12:44:13.786Z,25.87
2022-10-01T12:46:46.707Z,26.06
2022-10-01T12:49:30.269Z,25.80
2022-10-01T12:52:38.195Z,26.60
2022-10-01T12:55:07.215Z,27.38
2022-10-01T12:57:41.123Z,27.84
2022-10-01T13:00:32.072Z,28.39
2022-10-01T13:03:31.145Z,28.59
2022-10-01T13:06:36.797Z,29.03
2022-10-01T13:09:56.439Z,29.35
2022-10-01T13:12:39.977Z,29.78
2022-10-01T13:15:20.296Z,30.05
2022-10-01T13:17:58.451Z,30.89
2022-10-01T13:20:54.744Z,31.26
2022-10-01T13:23:39.540Z,31.18
2022-10-01T13:26:48.782Z,31.66
2022-10-01T13:29:54.226Z,31.74
2022-10-01T13:32:33.459Z,32.66
2022-10-01T13:35:22.113Z,32.81
2022-10-01T13:37:50.433Z,32.90
2022-10-01T13:40:35.585Z,33.38
2022-10-01T13:43:20.225Z,33.90
2022-10-01T13:45:54.317Z,34.38
2022-10-01T13:48:34.802Z,35.28
2022-10-01T13:51:09.270Z,35.52
2022-10-01T13:53:50.196Z,35.92
2022-10-01T13:56:35.284Z,36.11
2022-10-01T13:59:33.659Z,36.13
2022-10-01T14:02:03.265Z,36.58
2022-10-01T14:04:37.885Z,36.50
2022-10-01T14:07:17.934Z,36.46
2022-10-01T14:09:50.536Z,36.79
2022-10-01T14:12:48.322Z,36.85
2022-10-01T14:15:36.359Z,37.48
2022-10-01T14:18:09.923Z,37.74
2022-10-01T14:21:03.081Z,38.17
2022-10-01T14:24:26.674Z,38.65
2022-10-01T14:27:04.866Z,39.14
2022-10-01T14:29:38.898Z,39.48
2022-10-01T14:32:15.699Z,39.84
2022-10-01T14:34:49.866Z,40.27
2022-10-01T14:37:20.002Z,40.53
2022-10-01T14:40:01.303Z,41.01
2022-10-01T14:42:29.444Z,41.53
2022-10-01T14:44:57.423Z,41.84
2022-10-01T14:47:28.046Z,42.30
2022-10-01T14:49:56.434Z,43.25
2022-10-01T14:52:28.433Z,43.27
2022-10-01T14:54:56.785Z,43.22
2022-10-01T14:57:29.658Z,43.55
2022-10-01T15:00:01.522Z,44.45
2022-10-01T15:02:29.696Z,44.54
2022-10-01T15:04:58.377Z,45.01
2022-10-01T15:07:33.436Z,45.58
2022-10-01T15:10:17.888Z,46.09
2022-10-01T15:12:49.857Z,46.16
2022-10-01T15:15:31.359Z,46.08
2022-10-01T15:18:04.818Z,46.08
2022-10-01T15:20:35.550Z,46.31
2022-10-01T15:23:05.976Z,46.69
2022-10-01T15:25:34.224Z,46.98
2022-10-01T15:28:13.073Z,47.72
2022-10-01T15:30:46.864Z,48.40
2022-10-01T15:33:29.182Z,48.31
2022-10-01T15:36:04.328Z,48.54
2022-10-01T15:38:33.748Z,48.88
2022-10-01T15:41:26.872Z,48.27
2022-10-01T15:43:52.502Z,48.96
2022-10-01T15:46:33.038Z,49.21
2022-10-01T15:49:18.243Z,49.08
2022-10-01T15:52:22.876Z,49.10
2022-10-01T15:54:59.933Z,49.31
2022-10-01T15:57:33.564Z,49.71
2022-10-01T16:00:01.936Z,50.38
2022-10-01T16:02:33.287Z,50.49
2022-10-01T16:05:10.178Z,50.40
2022-10-01T16:07:40.416Z,50.54
2022-10-01T16:10:32.741Z,50.92
2022-10-01T16:13:20.670Z,51.09
2022-10-01T16:16:24.748Z,51.15
2022-10-01T16:18:56.647Z,51.24
2022-10-01T16:21:24.917Z,51.58
2022-10-01T16:23:54.421Z,52.28
2022-10-01T16:26:31.256Z,52.15
2022-10-01T16:29:06.460Z,53.19
2022-10-01T16:31:37.148Z,54.28
2022-10-01T16:34:14.152Z,55.08
2022-10-01T16:36:42.738Z,54.60
2022-10-01T16:39:13.790Z,56.53
2022-10-01T16:41:45.203Z,57.22
2022-10-01T16:44:14.451Z,57.88
2022-10-01T16:46:42.877Z,57.39
2022-10-01T16:49:14.172Z,57.75
2022-10-01T16:51:45.872Z,60.01
2022-10-01T16:54:24.287Z,64.11
2022-10-01T16:56:55.185Z,67.23
2022-10-01T16:59:24.932Z,65.62
2022-10-01T17:01:55.995Z,63.69
2022-10-01T17:04:29.300Z,63.73
2022-10-01T17:07:00.048Z,63.58
2022-10-01T17:09:28.428Z,64.62
2022-10-01T17:11:59.171Z,64.46
2022-10-01T17:14:27.952Z,65.03
2022-10-01T17:16:56.026Z,70.54
2022-10-01T17:19:24.989Z,74.10
2022-10-01T17:21:53.396Z,74.19
2022-10-01T17:24:21.835Z,72.92
2022-10-01T17:26:50.157Z,73.24
2022-10-01T17:29:18.475Z,73.60
2022-10-01T17:31:53.439Z,72.79
2022-10-01T17:34:22.178Z,71.43
2022-10-01T17:36:50.447Z,70.50
2022-10-01T17:39:18.650Z,71.20
2022-10-01T17:41:47.188Z,72.75
2022-10-01T17:44:16.078Z,71.58
2022-10-01T17:46:45.275Z,70.81
2022-10-01T17:49:14.679Z,72.72
2022-10-01T17:51:43.068Z,74.69
2022-10-01T17:54:11.474Z,73.85
2022-10-01T17:56:42.194Z,72.61
2022-10-01T17:59:10.654Z,73.24
2022-10-01T18:01:40.298Z,73.33
2022-10-01T18:04:12.634Z,73.00
2022-10-01T18:06:41.320Z,73.71
2022-10-01T18:09:09.704Z,73.32
2022-10-01T18:11:38.487Z,73.44
2022-10-01T18:14:07.891Z,76.54
2022-10-01T18:16:37.452Z,78.75
2022-10-01T18:19:52.281Z,76.38
2022-10-01T18:21:54.909Z,74.96
2022-10-01T18:24:23.725Z,75.79
2022-10-01T18:26:52.109Z,75.83
2022-10-01T18:29:26.154Z,77.57
2022-10-01T18:32:00.917Z,77.65
2022-10-01T18:34:38.516Z,77.19
2022-10-01T18:37:50.614Z,76.84
2022-10-01T18:40:20.668Z,77.42
2022-10-01T18:43:12.706Z,77.24
2022-10-01T18:45:59.547Z,77.11
2022-10-01T18:48:52.093Z,76.96
2022-10-01T18:51:41.331Z,77.25
2022-10-01T18:54:34.611Z,77.46
2022-10-01T18:57:24.343Z,77.18
2022-10-01T19:00:12.943Z,77.13
2022-10-01T19:03:02.505Z,77.24
2022-10-01T19:05:58.392Z,77.16
2022-10-01T19:08:54.218Z,77.03
2022-10-01T19:11:28.969Z,77.15
2022-10-01T19:14:42.006Z,77.67
2022-10-01T19:17:28.816Z,77.52
2022-10-01T19:20:21.158Z,77.45
2022-10-01T19:23:05.530Z,77.92
2022-10-01T19:25:40.733Z,78.11
2022-10-01T19:28:44.729Z,78.50
2022-10-01T19:31:39.238Z,78.59
2022-10-01T19:34:18.920Z,78.72
2022-10-01T19:36:55.164Z,78.42
2022-10-01T19:39:28.289Z,78.63
2022-10-01T19:42:05.643Z,79.08
2022-10-01T19:44:51.648Z,78.87
2022-10-01T19:47:51.850Z,79.02
2022-10-01T19:50:28.232Z,79.07
2022-10-01T19:52:58.898Z,78.87
2022-10-01T19:55:34.016Z,79.06
2022-10-01T19:58:18.695Z,79.57
2022-10-01T20:00:56.114Z,80.58
2022-10-01T20:03:57.546Z,80.32
2022-10-01T20:06:29.874Z,80.07
2022-10-01T20:09:03.939Z,79.84
2022-10-01T20:11:44.758Z,79.74
2022-10-01T20:14:57.684Z,79.87
2022-10-01T20:17:59.442Z,80.18
2022-10-01T20:20:36.021Z,80.39
2022-10-01T20:23:11.357Z,80.28
2022-10-01T20:25:57.965Z,80.25
2022-10-01T20:29:05.460Z,79.54
2022-10-01T20:31:54.549Z,78.43
2022-10-01T20:34:32.323Z,78.48
2022-10-01T20:37:35.245Z,78.71
2022-10-01T20:40:28.239Z,79.18
2022-10-01T20:43:09.551Z,79.33
2022-10-01T20:45:40.539Z,79.60
2022-10-01T20:48:24.127Z,79.99
2022-10-01T20:50:55.570Z,80.02
2022-10-01T20:53:39.002Z,79.95
2022-10-01T20:56:38.501Z,79.99
2022-10-01T20:59:17.456Z,80.33
2022-10-01T21:02:03.007Z,80.28
2022-10-01T21:04:40.596Z,79.93
2022-10-01T21:07:17.118Z,79.62
2022-10-01T21:09:50.728Z,79.02
2022-10-01T21:12:27.163Z,78.84
2022-10-01T21:14:57.441Z,78.86
2022-10-01T21:17:46.952Z,79.19
2022-10-01T21:20:35.210Z,78.88
2022-10-01T21:23:18.430Z,78.90
2022-10-01T21:25:59.408Z,79.16
2022-10-01T21:28:55.002Z,79.23
2022-10-01T21:31:49.459Z,79.02
2022-10-01T21:34:26.723Z,78.79
2022-10-01T21:36:58.052Z,78.79
2022-10-01T21:40:04.114Z,78.97
2022-10-01T21:42:44.470Z,79.30
2022-10-01T21:45:28.829Z,79.46
2022-10-01T21:48:12.569Z,79.72
2022-10-01T21:50:54.565Z,79.87
2022-10-01T21:54:07.653Z,80.41
2022-10-01T21:57:02.500Z,80.53
2022-10-01T22:00:13.369Z,80.29
2022-10-01T22:02:47.688Z,80.39
2022-10-01T22:05:29.421Z,80.61
2022-10-01T22:08:10.473Z,80.65
2022-10-01T22:10:44.363Z,80.63
2022-10-01T22:13:35.374Z,80.42
2022-10-01T22:16:10.385Z,80.57
2022-10-01T22:18:47.461Z,80.75
2022-10-01T22:21:47.117Z,80.61
2022-10-01T22:24:20.809Z,80.75
2022-10-01T22:27:11.611Z,80.98
2022-10-01T22:29:49.009Z,80.86
2022-10-01T22:32:21.171Z,80.87
2022-10-01T22:34:58.254Z,80.89
2022-10-01T22:37:34.226Z,80.82
2022-10-01T22:40:12.016Z,80.87
2022-10-01T22:42:46.844Z,81.18
2022-10-01T22:45:18.599Z,81.32
2022-10-01T22:48:07.678Z,81.38
2022-10-01T22:51:13.932Z,81.61
2022-10-01T22:53:57.159Z,81.52
2022-10-01T22:56:36.354Z,81.88
2022-10-01T22:59:19.732Z,81.78
2022-10-01T23:02:06.609Z,81.74
2022-10-01T23:04:51.324Z,81.86
2022-10-01T23:07:51.837Z,81.97
2022-10-01T23:10:41.515Z,82.12
2022-10-01T23:13:30.273Z,82.31
2022-10-01T23:16:04.738Z,82.58
2022-10-01T23:18:40.343Z,82.42
2022-10-01T23:21:26.248Z,82.27
2022-10-01T23:24:06.589Z,82.48
2022-10-01T23:27:04.050Z,82.56
2022-10-01T23:30:10.217Z,82.49
2022-10-01T23:32:44.750Z,82.77
2022-10-01T23:35:51.311Z,82.86
2022-10-01T23:38:45.292Z,83.07
2022-10-01T23:41:25.500Z,83.02
2022-10-01T23:44:08.158Z,83.11
2022-10-01T23:46:39.936Z,82.89
2022-10-01T23:49:15.840Z,82.97
2022-10-01T23:51:52.445Z,83.03
2022-10-01T23:54:30.198Z,82.94
2022-10-01T23:57:14.118Z,83.01
2022-10-01T23:59:52.829Z,83.16
